KAWO/AWO METAR and TAF weather

Enter ICAO airport designator
Station Type Date Time Source
KAWO METAR 2021/07/28 03:16 UTC NOAA

KAWO 280316Z AUTO 32007KT 10SM FEW002 22/12 A3007 RMK AO2


Station Type Date Time Source
KAWO Decoded METAR 2021/07/28 03:16 UTC NOAA

Arlington Municipal, WA, United States (KAWO) 48-10N 122-10W
Jul 27, 2021 - 11:16 PM EDT / 2021.07.28 0316 UTC
Wind: from the NW (320 degrees) at 8 MPH (7 KT):0
Visibility: 10 mile(s):0
Sky conditions: mostly clear
Temperature: 71 F (22 C)
Dew Point: 53 F (12 C)
Relative Humidity: 53%
Pressure (altimeter): 30.07 in. Hg (1018 hPa)
ob: KAWO 280316Z AUTO 32007KT 10SM FEW002 22/12 A3007 RMK AO2
cycle: 3

Station Type Date Time Source
KAWO TAF UTC NOAA

Error!

Example: see airport list